Decoded Metar for UKHH (KHARKOV in UKRAINE) (IATA:N/A) | Meteo·Mobile Aviation Weather
aviador You're here:

UKHH Decoded Metar

KHARKOV in UKRAINE
Report Time2018-08-22 04:00:00
UTC Time2018-08-22 04:29:33
Flight Rules vfr VFR
Wind360° at 8 kt
W.Decomp.*RWY 07: 1.7 kt HW 7.8 kt LCW
Visibility9999 m
Phenomena:N/A
Clouds:N/A
Expected CloudBase > 1,600 ft AGL from Temp-Dew spread
CeilingNone
Temp18°C (ISA +4)
Dew Point14°C (78% RH)
AAT16.4°C
QNH1015 hPa
Density Alt1,129 ft
Elevation509 ft
Report Wrong Elevation
Raw Report
UKHH 220400Z 36004MPS 330V030 CAVOK 18/14 Q1015 R25/0///72
NOSIG=

Extra information for UKHH:More info

Metar Taf Metar & Taf Last 4 Metars F.Rules Stats Wind Profile Meteogram Temp Stats Airport Information Weather charts Add Link Nearby VenuesMetar ALERT Operation Metar Decoded Social comments